createdAt,value
2024-01-24T00:00:14.751Z,6.60
2024-01-24T00:02:41.474Z,6.60
2024-01-24T00:05:08.681Z,6.70
2024-01-24T00:07:35.377Z,6.70
2024-01-24T00:10:02.077Z,6.80
2024-01-24T00:12:28.909Z,6.90
2024-01-24T00:14:55.598Z,6.90
2024-01-24T00:17:22.310Z,6.90
2024-01-24T00:19:49.044Z,6.90
2024-01-24T00:22:15.825Z,7.10
2024-01-24T00:24:42.628Z,7.10
2024-01-24T00:27:09.391Z,7.20
2024-01-24T00:29:36.028Z,7.30
2024-01-24T00:32:02.746Z,7.40
2024-01-24T00:34:29.453Z,7.40
2024-01-24T00:36:56.225Z,7.40
2024-01-24T00:39:23.094Z,7.40
2024-01-24T00:41:49.878Z,7.40
2024-01-24T00:44:16.579Z,7.40
2024-01-24T00:46:43.209Z,7.50
2024-01-24T00:49:11.135Z,7.50
2024-01-24T00:51:38.471Z,7.60
2024-01-24T00:54:05.265Z,7.60
2024-01-24T00:56:31.946Z,7.60
2024-01-24T00:58:58.656Z,7.60
2024-01-24T01:01:25.339Z,7.70
2024-01-24T01:03:52.114Z,7.70
2024-01-24T01:06:18.924Z,7.80
2024-01-24T01:08:45.577Z,7.80
2024-01-24T01:11:12.319Z,7.90
2024-01-24T01:13:38.996Z,7.90
2024-01-24T01:16:05.967Z,7.90
2024-01-24T01:18:32.703Z,7.90
2024-01-24T01:20:59.467Z,7.90
2024-01-24T01:23:26.182Z,8.00
2024-01-24T01:25:54.020Z,8.00
2024-01-24T01:28:20.712Z,8.10
2024-01-24T01:30:47.394Z,8.20
2024-01-24T01:33:14.161Z,8.20
2024-01-24T01:35:40.974Z,8.20
2024-01-24T01:38:07.664Z,8.20
2024-01-24T01:40:34.364Z,8.20
2024-01-24T01:43:01.056Z,8.30
2024-01-24T01:45:27.747Z,8.30
2024-01-24T01:47:54.507Z,8.30
2024-01-24T01:50:21.388Z,8.30
2024-01-24T01:52:48.111Z,8.30
2024-01-24T01:55:16.023Z,8.40
2024-01-24T01:57:44.320Z,8.40
2024-01-24T02:00:14.351Z,8.40
2024-01-24T02:02:41.287Z,8.40
2024-01-24T02:05:08.192Z,8.40
2024-01-24T02:07:35.040Z,8.40
2024-01-24T02:10:01.932Z,8.50
2024-01-24T02:12:28.643Z,8.50
2024-01-24T02:14:55.448Z,8.50
2024-01-24T02:17:22.201Z,8.60
2024-01-24T02:19:48.929Z,8.70
2024-01-24T02:22:15.679Z,8.60
2024-01-24T02:24:42.644Z,8.70
2024-01-24T02:27:09.445Z,8.90
2024-01-24T02:29:36.134Z,8.80
2024-01-24T02:32:02.920Z,8.80
2024-01-24T02:34:29.858Z,8.70
2024-01-24T02:36:56.733Z,8.70
2024-01-24T02:39:23.498Z,8.70
2024-01-24T02:41:50.221Z,8.60
2024-01-24T02:44:16.915Z,8.60
2024-01-24T02:46:43.613Z,8.70
2024-01-24T02:49:10.359Z,8.70
2024-01-24T02:51:37.362Z,8.60
2024-01-24T02:54:04.328Z,8.60
2024-01-24T02:56:31.035Z,8.60
2024-01-24T02:58:57.677Z,8.60
2024-01-24T03:01:25.793Z,8.60
2024-01-24T03:03:52.548Z,8.60
2024-01-24T03:06:19.406Z,8.60
2024-01-24T03:08:54.083Z,8.70
2024-01-24T03:11:20.867Z,8.70
2024-01-24T03:13:47.534Z,8.70
2024-01-24T03:16:14.585Z,8.80
2024-01-24T03:18:41.402Z,8.80
2024-01-24T03:21:09.396Z,8.90
2024-01-24T03:23:37.048Z,9.00
2024-01-24T03:26:03.814Z,9.10
2024-01-24T03:28:30.459Z,9.10
2024-01-24T03:30:57.168Z,9.30
2024-01-24T03:33:23.938Z,9.20
2024-01-24T03:35:50.756Z,9.30
2024-01-24T03:38:17.725Z,9.30
2024-01-24T03:40:44.404Z,9.30
2024-01-24T03:43:11.644Z,9.20
2024-01-24T03:45:39.196Z,9.40
2024-01-24T03:48:07.050Z,9.40
2024-01-24T03:50:34.676Z,9.50
2024-01-24T03:53:04.685Z,9.50
2024-01-24T03:55:31.571Z,9.50
2024-01-24T03:57:58.536Z,9.50
2024-01-24T04:00:25.607Z,9.50
2024-01-24T04:02:52.260Z,9.60
2024-01-24T04:05:18.928Z,9.50
2024-01-24T04:07:45.851Z,9.70
2024-01-24T04:10:12.599Z,9.70
2024-01-24T04:12:39.363Z,9.70
2024-01-24T04:15:09.585Z,9.70
2024-01-24T04:17:36.293Z,9.70
2024-01-24T04:20:03.030Z,9.60
2024-01-24T04:22:29.766Z,9.70
2024-01-24T04:24:58.310Z,9.70
2024-01-24T04:27:25.112Z,9.70
2024-01-24T04:29:51.924Z,9.70
2024-01-24T04:32:18.665Z,9.90
2024-01-24T04:34:45.904Z,9.90
2024-01-24T04:37:12.857Z,9.90
2024-01-24T04:39:39.632Z,10.00
2024-01-24T04:42:12.252Z,10.00
2024-01-24T04:44:43.349Z,10.00
2024-01-24T04:47:10.098Z,10.10
2024-01-24T04:49:44.582Z,10.20
2024-01-24T04:52:13.346Z,10.20
2024-01-24T04:54:40.260Z,10.20
2024-01-24T04:57:07.008Z,10.30
2024-01-24T04:59:42.641Z,10.40
2024-01-24T05:02:17.300Z,10.50
2024-01-24T05:04:44.263Z,10.70
2024-01-24T05:07:11.092Z,10.70
2024-01-24T05:09:37.904Z,10.70
2024-01-24T05:12:04.934Z,10.70
2024-01-24T05:14:31.644Z,10.80
2024-01-24T05:16:58.270Z,10.80
2024-01-24T05:19:25.039Z,10.80
2024-01-24T05:21:51.827Z,10.90
2024-01-24T05:24:18.550Z,10.80
2024-01-24T05:26:45.241Z,10.80
2024-01-24T05:29:11.877Z,10.80
2024-01-24T05:31:38.571Z,10.90
2024-01-24T05:34:05.582Z,10.90
2024-01-24T05:36:32.247Z,10.90
2024-01-24T05:38:58.886Z,11.00
2024-01-24T05:41:26.434Z,11.00
2024-01-24T05:43:53.097Z,11.00
2024-01-24T05:46:19.821Z,11.10
2024-01-24T05:48:46.818Z,11.10
2024-01-24T05:51:13.697Z,11.20
2024-01-24T05:53:43.428Z,11.10
2024-01-24T05:56:10.236Z,11.10
2024-01-24T05:58:37.885Z,11.20
2024-01-24T06:01:05.496Z,11.10
2024-01-24T06:03:32.862Z,11.10
2024-01-24T06:05:59.697Z,11.00
2024-01-24T06:08:26.440Z,11.00
2024-01-24T06:10:53.174Z,11.00
2024-01-24T06:13:19.841Z,10.90
2024-01-24T06:15:46.531Z,10.90
2024-01-24T06:18:13.254Z,10.90
2024-01-24T06:20:39.973Z,10.90
2024-01-24T06:23:06.636Z,10.90
2024-01-24T06:25:33.379Z,10.80
2024-01-24T06:28:00.067Z,10.80
2024-01-24T06:30:29.704Z,11.00
2024-01-24T06:32:58.761Z,11.30
2024-01-24T06:35:25.448Z,11.40
2024-01-24T06:37:56.356Z,11.50
2024-01-24T06:40:23.271Z,11.60
2024-01-24T06:42:50.162Z,11.60
2024-01-24T06:45:17.202Z,11.60
2024-01-24T06:47:43.919Z,11.60
2024-01-24T06:50:10.851Z,11.70
2024-01-24T06:52:37.528Z,11.80
2024-01-24T06:55:04.675Z,11.70
2024-01-24T06:57:31.420Z,11.80
2024-01-24T06:59:58.114Z,11.80
2024-01-24T07:02:24.808Z,11.80
2024-01-24T07:04:51.560Z,11.80
2024-01-24T07:07:18.419Z,11.80
2024-01-24T07:09:45.368Z,11.80
2024-01-24T07:12:13.104Z,11.70
2024-01-24T07:14:39.829Z,11.70
2024-01-24T07:17:06.533Z,11.70
2024-01-24T07:19:33.320Z,11.70
2024-01-24T07:22:01.950Z,11.70
2024-01-24T07:24:30.602Z,11.70
2024-01-24T07:26:57.275Z,11.70
2024-01-24T07:29:24.159Z,11.70
2024-01-24T07:31:50.885Z,11.80
2024-01-24T07:34:17.634Z,11.80
2024-01-24T07:36:44.427Z,11.80
2024-01-24T07:39:11.258Z,11.80
2024-01-24T07:41:37.969Z,11.90
2024-01-24T07:44:04.727Z,11.90
2024-01-24T07:46:31.481Z,12.00
2024-01-24T07:48:58.213Z,12.00
2024-01-24T07:51:25.102Z,12.00
2024-01-24T07:53:51.909Z,11.90
2024-01-24T07:56:24.580Z,11.90
2024-01-24T07:58:53.373Z,11.90
2024-01-24T08:01:20.697Z,11.90
2024-01-24T08:03:50.481Z,12.00
2024-01-24T08:06:18.638Z,11.90
2024-01-24T08:08:45.499Z,12.00
2024-01-24T08:11:12.376Z,12.00
2024-01-24T08:13:39.111Z,12.00
2024-01-24T08:16:06.187Z,12.00
2024-01-24T08:18:33.076Z,12.00
2024-01-24T08:20:59.884Z,11.90
2024-01-24T08:23:34.440Z,11.90
2024-01-24T08:26:10.399Z,12.00
2024-01-24T08:28:37.227Z,11.90
2024-01-24T08:31:04.024Z,11.90
2024-01-24T08:33:30.812Z,12.00
2024-01-24T08:35:57.495Z,11.90
2024-01-24T08:38:24.189Z,12.00
2024-01-24T08:40:50.905Z,12.00
2024-01-24T08:43:17.692Z,12.00
2024-01-24T08:48:13.571Z,12.10
2024-01-24T08:50:40.279Z,12.10
2024-01-24T08:53:07.121Z,12.10
2024-01-24T08:55:33.800Z,12.20
2024-01-24T08:58:00.566Z,12.00
2024-01-24T09:00:27.354Z,12.20
2024-01-24T09:02:54.478Z,12.20
2024-01-24T09:05:22.745Z,12.20
2024-01-24T09:07:49.496Z,12.20
2024-01-24T09:10:16.434Z,12.30
2024-01-24T09:12:43.391Z,12.30
2024-01-24T09:15:10.432Z,12.30
2024-01-24T09:17:37.288Z,12.30
2024-01-24T09:20:04.766Z,12.40
2024-01-24T09:24:59.868Z,12.50
2024-01-24T09:27:26.921Z,12.50
2024-01-24T09:29:53.635Z,12.60
2024-01-24T09:32:20.329Z,12.60
2024-01-24T09:34:48.716Z,12.60
2024-01-24T09:37:15.521Z,12.60
2024-01-24T09:39:42.253Z,12.70
2024-01-24T09:42:19.910Z,12.70
2024-01-24T09:44:48.915Z,12.60
2024-01-24T09:47:17.395Z,12.60
2024-01-24T09:49:44.941Z,12.70
2024-01-24T09:52:14.727Z,12.70
2024-01-24T09:54:43.399Z,12.80
2024-01-24T09:57:11.412Z,12.70
2024-01-24T09:59:38.456Z,12.90
2024-01-24T10:02:07.170Z,12.90
2024-01-24T10:04:34.931Z,12.90
2024-01-24T10:07:02.015Z,13.00
2024-01-24T10:09:28.727Z,12.90
2024-01-24T10:11:55.436Z,12.90
2024-01-24T10:14:23.308Z,13.00
2024-01-24T10:16:51.675Z,13.00
2024-01-24T10:19:23.694Z,13.10
2024-01-24T10:21:50.903Z,13.10
2024-01-24T10:24:17.965Z,13.20
2024-01-24T10:26:45.058Z,13.20
2024-01-24T10:29:15.348Z,13.20
2024-01-24T10:31:44.659Z,13.20
2024-01-24T10:34:12.272Z,13.30
2024-01-24T10:36:41.297Z,13.40
2024-01-24T10:39:12.321Z,13.40
2024-01-24T10:41:44.214Z,13.40
2024-01-24T10:44:14.668Z,13.40
2024-01-24T10:46:41.761Z,13.50
2024-01-24T10:49:11.048Z,13.40
2024-01-24T10:51:38.355Z,13.40
2024-01-24T10:54:05.720Z,13.40
2024-01-24T10:56:33.674Z,13.40
2024-01-24T10:59:03.769Z,13.40
2024-01-24T11:01:30.890Z,13.40
2024-01-24T11:03:59.648Z,13.40
2024-01-24T11:06:29.446Z,13.40
2024-01-24T11:09:09.746Z,13.50
2024-01-24T11:11:38.637Z,13.40
2024-01-24T11:14:05.359Z,13.50
2024-01-24T11:16:36.304Z,13.50
2024-01-24T11:19:23.148Z,13.40
2024-01-24T11:21:51.141Z,13.50
2024-01-24T11:24:43.113Z,13.50
2024-01-24T11:27:36.203Z,13.50
2024-01-24T11:30:07.129Z,13.40
2024-01-24T11:32:46.471Z,13.40
2024-01-24T11:35:45.997Z,13.50
2024-01-24T11:38:25.860Z,13.40
2024-01-24T11:41:09.735Z,13.40
2024-01-24T11:43:38.601Z,13.50
2024-01-24T11:46:09.348Z,13.60
2024-01-24T11:48:38.370Z,13.60
2024-01-24T11:51:09.313Z,13.60
2024-01-24T11:53:36.538Z,13.50
2024-01-24T11:56:16.843Z,13.50
2024-01-24T11:58:43.860Z,13.60
2024-01-24T12:01:11.572Z,13.50
2024-01-24T12:03:45.839Z,13.40
2024-01-24T12:06:12.708Z,12.90
2024-01-24T12:08:39.431Z,12.90
2024-01-24T12:11:09.020Z,12.80
2024-01-24T12:13:35.985Z,12.70
2024-01-24T12:16:03.013Z,12.60
2024-01-24T12:18:30.127Z,12.50
2024-01-24T12:21:00.844Z,12.50
2024-01-24T12:23:29.641Z,12.50
2024-01-24T12:25:57.183Z,12.50
2024-01-24T12:28:24.973Z,12.30
2024-01-24T12:30:54.683Z,12.30
2024-01-24T12:33:21.812Z,12.10
2024-01-24T12:35:49.135Z,12.10
2024-01-24T12:38:17.726Z,12.00
2024-01-24T12:40:53.421Z,12.00
2024-01-24T12:43:21.234Z,12.00
2024-01-24T12:45:48.216Z,12.00
2024-01-24T12:48:15.096Z,12.00
2024-01-24T12:50:41.999Z,12.10
2024-01-24T12:53:08.804Z,12.30
2024-01-24T12:55:35.627Z,12.50
2024-01-24T12:58:03.633Z,12.50
2024-01-24T13:00:30.485Z,12.70
2024-01-24T13:02:57.272Z,12.80
2024-01-24T13:05:32.114Z,12.80
2024-01-24T13:08:06.444Z,12.80
2024-01-24T13:10:33.134Z,12.60
2024-01-24T13:13:00.907Z,12.30
2024-01-24T13:15:30.037Z,12.20
2024-01-24T13:17:59.123Z,12.10
2024-01-24T13:20:28.953Z,11.90
2024-01-24T13:23:00.750Z,11.80
2024-01-24T13:25:31.921Z,11.70
2024-01-24T13:28:01.736Z,11.70
2024-01-24T13:30:29.388Z,11.60
2024-01-24T13:33:00.348Z,11.60
2024-01-24T13:35:27.735Z,11.70
2024-01-24T13:37:54.510Z,11.60
2024-01-24T13:40:21.506Z,11.60
2024-01-24T13:42:48.765Z,11.60
2024-01-24T13:45:15.856Z,11.60
2024-01-24T13:47:42.775Z,11.60
2024-01-24T13:50:10.043Z,11.60
2024-01-24T14:12:15.894Z,11.80
2024-01-24T14:14:42.714Z,11.70
2024-01-24T14:17:12.325Z,11.50
2024-01-24T14:19:39.311Z,11.40
2024-01-24T14:22:06.159Z,11.30
2024-01-24T14:24:32.979Z,11.30
2024-01-24T14:26:59.729Z,11.20
2024-01-24T14:29:26.372Z,11.10
2024-01-24T14:31:53.009Z,11.10
2024-01-24T14:34:19.798Z,11.10
2024-01-24T14:36:52.221Z,11.10
2024-01-24T14:39:22.859Z,11.00
2024-01-24T14:41:49.956Z,11.10
2024-01-24T14:44:16.708Z,11.00
2024-01-24T14:46:43.444Z,11.10
2024-01-24T14:49:10.538Z,11.00
2024-01-24T14:51:37.337Z,11.00
2024-01-24T14:54:04.163Z,11.00
2024-01-24T14:56:30.887Z,11.00
2024-01-24T14:58:57.613Z,11.00
2024-01-24T15:01:24.367Z,11.00
2024-01-24T15:03:51.164Z,10.90
2024-01-24T15:06:17.889Z,10.90
2024-01-24T15:08:44.646Z,10.90
2024-01-24T15:11:11.314Z,10.90
2024-01-24T15:13:37.957Z,10.70
2024-01-24T15:16:05.222Z,10.70
2024-01-24T15:18:32.398Z,10.60
2024-01-24T15:21:07.627Z,10.50
2024-01-24T15:23:38.593Z,10.50
2024-01-24T15:26:05.310Z,10.60
2024-01-24T15:28:32.606Z,10.60
2024-01-24T15:30:59.871Z,10.50
2024-01-24T15:33:26.687Z,10.50
2024-01-24T15:35:54.186Z,10.50
2024-01-24T15:38:20.877Z,10.50
2024-01-24T15:40:47.657Z,10.50
2024-01-24T15:43:14.426Z,10.50
2024-01-24T15:45:41.310Z,10.40
2024-01-24T15:48:08.144Z,10.40
2024-01-24T15:50:34.983Z,10.40
2024-01-24T15:53:01.747Z,10.40
2024-01-24T15:55:28.494Z,10.40
2024-01-24T15:57:55.664Z,10.30
2024-01-24T16:00:22.652Z,10.40
2024-01-24T16:02:49.696Z,10.30
2024-01-24T16:05:38.035Z,10.40
2024-01-24T16:08:05.372Z,10.30
2024-01-24T16:10:32.038Z,10.40
2024-01-24T16:12:59.122Z,10.40
2024-01-24T16:15:26.141Z,10.50
2024-01-24T16:17:52.945Z,10.40
2024-01-24T16:20:19.761Z,10.40
2024-01-24T16:22:54.489Z,10.50
2024-01-24T16:25:27.622Z,10.50
2024-01-24T16:27:54.702Z,10.30
2024-01-24T16:30:22.056Z,10.30
2024-01-24T16:32:48.842Z,10.20
2024-01-24T16:35:15.754Z,10.20
2024-01-24T16:37:42.606Z,10.20
2024-01-24T16:40:09.807Z,10.20
2024-01-24T16:42:37.522Z,10.20
2024-01-24T16:45:04.965Z,10.20
2024-01-24T16:47:31.730Z,10.10
2024-01-24T16:49:58.690Z,10.10
2024-01-24T16:52:25.463Z,10.10
2024-01-24T16:54:52.210Z,10.00
2024-01-24T16:57:19.022Z,10.00
2024-01-24T16:59:45.883Z,9.90
2024-01-24T17:02:12.605Z,9.90
2024-01-24T17:04:39.974Z,9.90
2024-01-24T17:07:08.424Z,9.90
2024-01-24T17:09:35.201Z,9.90
2024-01-24T17:12:01.960Z,9.80
2024-01-24T17:14:31.034Z,9.80
2024-01-24T17:16:59.136Z,9.70
2024-01-24T17:19:26.942Z,9.70
2024-01-24T17:21:53.759Z,9.60
2024-01-24T17:24:20.506Z,9.60
2024-01-24T17:26:47.166Z,9.50
2024-01-24T17:29:13.914Z,9.50
2024-01-24T17:31:40.853Z,9.50
2024-01-24T17:34:07.654Z,9.50
2024-01-24T17:36:34.568Z,9.40
2024-01-24T17:39:01.486Z,9.40
2024-01-24T17:41:29.352Z,9.40
2024-01-24T17:43:56.126Z,9.30
2024-01-24T17:46:22.952Z,9.30
2024-01-24T17:48:50.613Z,9.30
2024-01-24T17:51:17.761Z,9.30
2024-01-24T17:53:44.597Z,9.30
2024-01-24T17:56:12.367Z,9.30
2024-01-24T17:58:39.276Z,9.30
2024-01-24T18:01:06.207Z,9.30
2024-01-24T18:03:33.130Z,9.30
2024-01-24T18:05:59.864Z,9.20
2024-01-24T18:08:26.663Z,9.20
2024-01-24T18:10:53.394Z,9.10
2024-01-24T18:13:20.149Z,9.10
2024-01-24T18:15:46.909Z,9.20
2024-01-24T18:18:13.698Z,9.10
2024-01-24T18:20:40.462Z,9.10
2024-01-24T18:23:07.238Z,9.10
2024-01-24T18:25:33.928Z,9.10
2024-01-24T18:28:00.598Z,9.10
2024-01-24T18:30:27.405Z,9.10
2024-01-24T18:32:54.269Z,9.00
2024-01-24T18:35:21.111Z,9.00
2024-01-24T18:37:47.853Z,9.00
2024-01-24T18:40:14.836Z,8.90
2024-01-24T18:42:41.664Z,8.90
2024-01-24T18:45:09.276Z,8.90
2024-01-24T18:47:36.134Z,8.90
2024-01-24T18:50:03.119Z,8.80
2024-01-24T18:52:30.107Z,8.70
2024-01-24T18:54:57.929Z,8.70
2024-01-24T18:57:24.652Z,8.70
2024-01-24T18:59:51.828Z,8.70
2024-01-24T19:02:18.949Z,8.70
2024-01-24T19:04:45.931Z,8.70
2024-01-24T19:07:13.474Z,8.70
2024-01-24T19:09:40.354Z,8.60
2024-01-24T19:12:07.939Z,8.60
2024-01-24T19:14:35.082Z,8.50
2024-01-24T19:17:01.948Z,8.50
2024-01-24T19:19:28.832Z,8.50
2024-01-24T19:21:55.660Z,8.50
2024-01-24T19:24:22.446Z,8.60
2024-01-24T19:26:49.147Z,8.50
2024-01-24T19:29:16.142Z,8.50
2024-01-24T19:31:43.188Z,8.40
2024-01-24T19:34:10.259Z,8.40
2024-01-24T19:36:37.385Z,8.40
2024-01-24T19:39:04.357Z,8.40
2024-01-24T19:41:31.286Z,8.40
2024-01-24T19:43:58.132Z,8.30
2024-01-24T19:46:25.068Z,8.30
2024-01-24T19:48:52.059Z,8.30
2024-01-24T19:51:19.596Z,8.30
2024-01-24T19:53:46.821Z,8.30
2024-01-24T19:56:13.632Z,8.30
2024-01-24T19:58:40.867Z,8.20
2024-01-24T20:01:07.874Z,8.20
2024-01-24T20:03:35.089Z,8.20
2024-01-24T20:06:02.015Z,8.20
2024-01-24T20:08:29.270Z,8.20
2024-01-24T20:10:56.461Z,8.20
2024-01-24T20:13:23.246Z,8.20
2024-01-24T20:15:50.168Z,8.20
2024-01-24T20:18:17.282Z,8.20
2024-01-24T20:20:44.661Z,8.20
2024-01-24T20:23:11.585Z,8.10
2024-01-24T20:25:38.702Z,8.10
2024-01-24T20:28:05.933Z,8.10
2024-01-24T20:30:32.917Z,8.10
2024-01-24T20:33:04.402Z,8.10
2024-01-24T20:35:32.779Z,8.00
2024-01-24T20:37:59.939Z,8.00
2024-01-24T20:40:26.843Z,7.90
2024-01-24T20:42:53.652Z,7.90
2024-01-24T20:45:20.465Z,7.80
2024-01-24T20:47:49.038Z,7.80
2024-01-24T20:50:19.816Z,7.80
2024-01-24T20:52:46.645Z,7.80
2024-01-24T20:55:13.605Z,7.80
2024-01-24T20:57:40.550Z,7.80
2024-01-24T21:00:07.984Z,7.80
2024-01-24T21:02:34.957Z,7.90
2024-01-24T21:05:01.998Z,8.00
2024-01-24T21:07:28.920Z,8.00
2024-01-24T21:09:55.775Z,8.00
2024-01-24T21:12:22.711Z,8.00
2024-01-24T21:14:49.467Z,8.00
2024-01-24T21:17:16.253Z,8.00
2024-01-24T21:19:43.107Z,8.00
2024-01-24T21:22:09.997Z,8.00
2024-01-24T21:24:37.142Z,8.00
2024-01-24T21:27:04.175Z,8.10
2024-01-24T21:29:30.953Z,8.00
2024-01-24T21:31:57.780Z,8.00
2024-01-24T21:34:24.734Z,8.00
2024-01-24T21:36:51.690Z,8.00
2024-01-24T21:39:18.650Z,8.00
2024-01-24T21:41:45.469Z,8.00
2024-01-24T21:44:12.203Z,8.10
2024-01-24T21:46:38.902Z,8.10
2024-01-24T21:49:05.922Z,8.10
2024-01-24T21:51:32.686Z,8.10
2024-01-24T21:53:59.329Z,8.10
2024-01-24T21:56:26.076Z,8.10
2024-01-24T21:58:52.774Z,8.00
2024-01-24T22:01:19.488Z,8.10
2024-01-24T22:03:46.284Z,8.10
2024-01-24T22:06:14.668Z,8.10
2024-01-24T22:08:42.914Z,8.10
2024-01-24T22:11:09.637Z,8.10
2024-01-24T22:13:36.279Z,8.10
2024-01-24T22:16:02.987Z,8.10
2024-01-24T22:18:33.982Z,8.10
2024-01-24T22:21:07.581Z,8.10
2024-01-24T22:23:34.701Z,8.00
2024-01-24T22:26:01.332Z,8.00
2024-01-24T22:28:29.259Z,8.00
2024-01-24T22:30:56.067Z,8.00
2024-01-24T22:33:23.353Z,8.00
2024-01-24T22:35:50.480Z,8.00
2024-01-24T22:38:18.020Z,8.00
2024-01-24T22:40:44.790Z,7.90
2024-01-24T22:43:14.723Z,7.90
2024-01-24T22:45:41.454Z,7.90
2024-01-24T22:48:08.497Z,7.90
2024-01-24T22:50:35.466Z,7.90
2024-01-24T22:53:02.562Z,7.90
2024-01-24T22:55:29.379Z,7.90
2024-01-24T22:57:56.900Z,7.90
2024-01-24T23:00:23.892Z,7.90
2024-01-24T23:02:50.639Z,7.90
2024-01-24T23:05:17.499Z,7.90
2024-01-24T23:07:44.636Z,7.90
2024-01-24T23:10:11.803Z,7.80
2024-01-24T23:12:39.225Z,7.80
2024-01-24T23:15:07.322Z,7.90
2024-01-24T23:17:34.254Z,7.80
2024-01-24T23:20:01.527Z,7.80
2024-01-24T23:22:28.483Z,7.80
2024-01-24T23:24:55.288Z,7.80
2024-01-24T23:27:22.017Z,7.80
2024-01-24T23:29:48.682Z,7.90
2024-01-24T23:32:15.447Z,7.90
2024-01-24T23:34:42.575Z,7.90
2024-01-24T23:37:09.454Z,7.80
2024-01-24T23:39:36.377Z,7.90
2024-01-24T23:42:03.194Z,7.90
2024-01-24T23:44:29.934Z,7.80
2024-01-24T23:46:56.608Z,7.80
2024-01-24T23:49:23.515Z,7.80
2024-01-24T23:51:50.655Z,7.80
2024-01-24T23:54:18.114Z,7.70
2024-01-24T23:56:44.793Z,7.80
2024-01-24T23:59:11.503Z,7.80
